Aérodrome :
LOGIN :

S'inscrire | Disclaimer

   EN    FR    IT 

 










Légende :    VFR   VFR Marginal   IFR   IFR Intensif   IFR Très Intensif
Visi : 
Plafond : 
>= 8 km
>= 3000ft
5 à 8 km
1000 à 3000 ft
1500m à 5 km
500 à 1000 ft
800 à 1500m
200 à 500 ft
< 800m
< 200 ft
Symboles :   Orages  Brouillard  Fortes neiges  Fortes précipitations  Vent > 20 kt
SIGMETs :   Divers  Orages  Givrage  Turbulence  Onde Orograph.  Cendres Volcan.






- Altitude de l'aérodrome : 117 ft
- Code IATA : NWI


EGSH - Norwich

DERNIER METAR :
  • 202120Z 25013KT CAVOK 04/M00 Q1015

METARs EXPIRÉS :
  • 202050Z 26015KT CAVOK 04/M00 Q1014 NOSIG
  • 202020Z 26014KT CAVOK 05/00 Q1014 NOSIG
  • 201950Z 26016KT CAVOK 04/M00 Q1013 NOSIG
  • 201920Z 26015G25KT CAVOK 05/00 Q1012 NOSIG
  • 201850Z 27016KT CAVOK 05/M00 Q1012 NOSIG

TAF TAF EGSH
Valide du 20 à 21h jusqu'au 21 à 03h UTC


201952Z 2021/2103 26015KT 9999 SCT018
ATIS : +44 1603 420 640



MET'MAP, la Météo Aéronautique d'un coup d'oeil ! - Copyright ORBIFLY Décembre 2007 - Disclaimer

ORBIFLY MET'MAP TEAM :

Programmation & Développement : Alexandra Zaïnal
Sur une idée originale de : Baudouin d'Aumeries
Assistance à la programmation : Marc-Olivier Méhu
Soutien technique & logistique : Manuel Goepfert

Contact : metmap@orbifly.com




SOURCES & CREDITS :

   NOAA